Aeroporto :
LOGIN :

Iscrizione | Disclaimer

   EN    FR    IT 

 










Sommario :    VFR   VFR Marginale   IFR   IFR Intensivo   IFR Molto Intensivo
Visibilità : 
Base nubi : 
>= 8 km
>= 3000ft
5 / 8 km
1000 / 3000 ft
1500m / 5 km
500 / 1000 ft
800 / 1500m
200 / 500 ft
< 800m
< 200 ft
Simboli :   Temporali  Nebbia  Neve Forte  Precipitazioni Forti  Vento > 20 kt
SIGMETs :   Varie  Temporali  Ghiacco  Turbolenza  Onda orograficha  Ceneri Vulcaniche






- Altitudine del aeroporto : 194 ft
- Codice IATA : LME


LFRM - Le Mans

ULTIMO METAR :
  • 160630Z AUTO 14004KT 6000 FEW010 SCT017 BKN031 09/08 Q1004 TEMPO 2500 RA BKN005

METARs OBSOLETI :
  • 160600Z AUTO VRB02KT 8000 -RA BKN006 OVC017 09/08 Q1004 TEMPO 2500 RA
  • 160530Z AUTO VRB02KT 8000 -RA BKN005/// BKN019/// BKN033/// ///TCU 08/08 Q1004 TEMPO 2500 RA BKN005
  • 160500Z AUTO VRB03KT 7000 -RA FEW005/// SCT011/// BKN026/// ///TCU 08/08 Q1004
  • 160430Z AUTO 16004KT 120V190 9999 -RA FEW024/// OVC060/// ///TCU 08/08 Q1004
  • 160400Z AUTO 16003KT 9999 -RA SCT009/// BKN019/// BKN052/// ///TCU 08/08 Q1004

TAF TAF LFRM
Valido dal 16 a 06 ore il 17 a 06 ore UTC


160500Z 1606/1706 17006KT 9999 SCT020 BKN040
TEMPO 1606/1615 4000 -RA BKN008
PROB40
TEMPO 1606/1612 2500 RA BKN005



MetMap, La meteo Aeronautica in un colpo d'occhio ! - Copyright ORBIFLY Dicembre 2007 - Disclaimer

ORBIFLY MET'MAP TEAM :

Programmazione e sviluppo : Alexandra Zaïnal
Concezione : Baudouin d'Aumeries
Aiuto per la programmazione : Marc-Olivier Méhu
Supporto tecnico e logistico : Manuel Goepfert
Aiuto per la traduzione : Arnaldo La Scala

Contatto : metmap@orbifly.com




FONTI E CREDITI :

   NOAA